Time;durP1;ratioP1;P1;durP2;ratioP2;P2;SDS_P1;SDS_P2;PMS_P1;PMS_P2;Temp;Humidity;BMP_temperature;BMP_pressure;BME280_temperature;BME280_humidity;BME280_pressure;Samples;Min_cycle;Max_cycle;Signal;HPM_P1;HPM_P2
2022/03/15 00:00:45;;;;;;;25.00;12.98;;;;;;;;;;4787357;29;20462;-83
2022/03/15 00:03:11;;;;;;;25.85;14.05;;;;;;;;;;4788189;29;20446;-83
2022/03/15 00:05:37;;;;;;;26.67;14.32;;;;;;;;;;4774712;29;20428;-83
2022/03/15 00:08:03;;;;;;;26.00;13.30;;;;;;;;;;4773129;29;20932;-82
2022/03/15 00:10:30;;;;;;;30.75;14.25;;;;;;;;;;4800822;29;20499;-82
2022/03/15 00:12:56;;;;;;;24.13;12.98;;;;;;;;;;4794895;29;20447;-82
2022/03/15 00:15:24;;;;;;;23.80;13.50;;;;;;;;;;4778139;29;20435;-82
2022/03/15 00:17:50;;;;;;;22.75;12.18;;;;;;;;;;4812980;29;20475;-82
2022/03/15 00:20:20;;;;;;;25.20;12.88;;;;;;;;;;4776678;29;20531;-82
2022/03/15 00:22:47;;;;;;;22.73;12.25;;;;;;;;;;4788761;29;20423;-83
2022/03/15 00:25:16;;;;;;;25.30;12.43;;;;;;;;;;4790740;29;20429;-83
2022/03/15 00:27:42;;;;;;;26.88;13.60;;;;;;;;;;4773917;29;20918;-83
2022/03/15 00:30:08;;;;;;;26.08;12.80;;;;;;;;;;4787120;29;20952;-83
2022/03/15 00:32:34;;;;;;;27.73;13.30;;;;;;;;;;4803311;29;20424;-83
2022/03/15 00:35:01;;;;;;;28.52;13.85;;;;;;;;;;4821808;29;20423;-83
2022/03/15 00:37:27;;;;;;;28.95;13.85;;;;;;;;;;4800721;29;20770;-83
2022/03/15 00:39:53;;;;;;;28.00;14.13;;;;;;;;;;4797818;29;20471;-85
2022/03/15 00:42:19;;;;;;;30.48;14.73;;;;;;;;;;4799340;29;20455;-83
2022/03/15 00:44:45;;;;;;;30.60;15.18;;;;;;;;;;4796148;29;20939;-83
2022/03/15 00:47:11;;;;;;;31.20;15.02;;;;;;;;;;4797769;29;20982;-83
2022/03/15 00:49:38;;;;;;;33.25;16.45;;;;;;;;;;4769785;30;20479;-83
2022/03/15 00:52:04;;;;;;;32.67;16.95;;;;;;;;;;4737980;29;20501;-82
2022/03/15 00:54:30;;;;;;;28.35;15.48;;;;;;;;;;4785542;29;20433;-81
2022/03/15 00:56:57;;;;;;;28.65;15.30;;;;;;;;;;4782107;30;20472;-82
2022/03/15 00:59:23;;;;;;;28.92;14.35;;;;;;;;;;4769279;30;20448;-82
2022/03/15 01:01:49;;;;;;;25.85;13.10;;;;;;;;;;4765939;29;20519;-82
2022/03/15 01:04:15;;;;;;;28.38;13.52;;;;;;;;;;4784694;29;20529;-82
2022/03/15 01:06:44;;;;;;;28.85;13.65;;;;;;;;;;4784663;30;20950;-82
2022/03/15 01:09:11;;;;;;;25.83;12.90;;;;;;;;;;4783320;29;20958;-82
2022/03/15 01:11:37;;;;;;;29.25;14.20;;;;;;;;;;4770299;30;20497;-82
2022/03/15 01:14:04;;;;;;;27.93;14.13;;;;;;;;;;4781768;29;20508;-83
2022/03/15 01:16:30;;;;;;;28.65;14.77;;;;;;;;;;4781935;30;20448;-82
2022/03/15 01:18:56;;;;;;;25.60;15.25;;;;;;;;;;4755165;29;20548;-82
2022/03/15 01:21:23;;;;;;;30.80;15.55;;;;;;;;;;4756040;30;20778;-83
2022/03/15 01:23:49;;;;;;;35.40;16.27;;;;;;;;;;4768902;29;21022;-83
2022/03/15 01:26:15;;;;;;;31.25;16.48;;;;;;;;;;4765764;29;20988;-83
2022/03/15 01:28:42;;;;;;;32.90;18.02;;;;;;;;;;4781907;29;20520;-82
2022/03/15 01:31:11;;;;;;;33.40;18.10;;;;;;;;;;4739038;30;20451;-82
2022/03/15 01:33:37;;;;;;;32.30;18.45;;;;;;;;;;4769503;30;20448;-82
2022/03/15 01:36:04;;;;;;;36.30;19.83;;;;;;;;;;4783975;29;20524;-82
2022/03/15 01:38:30;;;;;;;33.50;19.10;;;;;;;;;;4779260;29;20430;-82
2022/03/15 01:40:56;;;;;;;34.90;20.47;;;;;;;;;;4763805;29;21189;-81
2022/03/15 01:43:22;;;;;;;32.72;20.27;;;;;;;;;;4754817;30;20778;-81
2022/03/15 01:45:48;;;;;;;39.78;21.30;;;;;;;;;;4753957;30;20437;-81
2022/03/15 01:48:14;;;;;;;38.10;21.90;;;;;;;;;;4783800;29;20490;-81
2022/03/15 01:50:40;;;;;;;37.47;21.13;;;;;;;;;;4789527;29;20443;-80
2022/03/15 01:53:07;;;;;;;38.83;23.58;;;;;;;;;;4788790;29;20470;-80
2022/03/15 01:55:33;;;;;;;34.15;20.90;;;;;;;;;;4799782;29;20492;-80
2022/03/15 01:57:59;;;;;;;33.70;19.85;;;;;;;;;;4803260;29;20435;-80
2022/03/15 02:00:25;;;;;;;35.80;20.60;;;;;;;;;;4805014;29;20780;-80
2022/03/15 02:02:53;;;;;;;35.63;21.13;;;;;;;;;;4761184;29;20449;-80
2022/03/15 02:05:19;;;;;;;36.88;21.00;;;;;;;;;;4800248;29;20499;-81
2022/03/15 02:07:45;;;;;;;32.03;20.27;;;;;;;;;;4800203;29;20949;-82
2022/03/15 02:10:11;;;;;;;34.92;20.30;;;;;;;;;;4785628;29;20810;-81
2022/03/15 02:12:38;;;;;;;36.37;21.07;;;;;;;;;;4783135;29;20448;-81
2022/03/15 02:15:06;;;;;;;40.53;21.52;;;;;;;;;;4817773;29;20444;-82
2022/03/15 02:17:32;;;;;;;36.63;20.95;;;;;;;;;;4824562;29;20462;-82
2022/03/15 02:19:59;;;;;;;37.53;21.35;;;;;;;;;;4805848;29;20446;-82
2022/03/15 02:22:26;;;;;;;36.08;21.30;;;;;;;;;;4800056;29;20557;-82
2022/03/15 02:24:52;;;;;;;34.85;20.75;;;;;;;;;;4760171;29;20439;-83
2022/03/15 02:27:23;;;;;;;34.78;21.33;;;;;;;;;;4762052;29;20454;-82
2022/03/15 02:29:50;;;;;;;34.70;20.98;;;;;;;;;;4814522;29;20446;-82
2022/03/15 02:32:16;;;;;;;33.75;21.35;;;;;;;;;;4775355;29;20446;-82
2022/03/15 02:34:42;;;;;;;37.58;21.27;;;;;;;;;;4791905;29;20525;-82
2022/03/15 02:37:08;;;;;;;33.67;20.42;;;;;;;;;;4782396;29;20423;-80
2022/03/15 02:39:35;;;;;;;30.77;19.85;;;;;;;;;;4777961;29;20777;-79
2022/03/15 02:42:01;;;;;;;34.05;20.52;;;;;;;;;;4797402;29;20448;-80
2022/03/15 02:44:27;;;;;;;34.47;20.02;;;;;;;;;;4789145;29;20443;-80
2022/03/15 02:46:53;;;;;;;44.45;21.98;;;;;;;;;;4803516;29;20439;-80
2022/03/15 02:49:19;;;;;;;37.28;21.17;;;;;;;;;;4775451;29;20502;-80
2022/03/15 02:51:46;;;;;;;36.80;21.33;;;;;;;;;;4782651;29;20423;-80
2022/03/15 02:54:13;;;;;;;36.58;20.67;;;;;;;;;;4788052;29;20466;-80
2022/03/15 02:56:42;;;;;;;33.42;20.27;;;;;;;;;;4784096;29;20431;-80
2022/03/15 02:59:08;;;;;;;35.10;19.63;;;;;;;;;;4802801;29;20948;-80
2022/03/15 03:01:34;;;;;;;33.80;19.70;;;;;;;;;;4760157;29;20808;-80
2022/03/15 03:04:01;;;;;;;33.47;19.88;;;;;;;;;;4785333;29;20504;-80
2022/03/15 03:06:27;;;;;;;35.88;19.88;;;;;;;;;;4818860;29;20983;-80
2022/03/15 03:08:53;;;;;;;34.13;19.50;;;;;;;;;;4789028;29;20464;-80
2022/03/15 03:11:19;;;;;;;34.55;19.95;;;;;;;;;;4788297;29;20435;-80
2022/03/15 03:13:47;;;;;;;31.83;19.73;;;;;;;;;;4787509;29;20522;-80
2022/03/15 03:16:14;;;;;;;38.42;20.55;;;;;;;;;;4819508;29;20912;-80
2022/03/15 03:18:40;;;;;;;35.40;20.48;;;;;;;;;;4803008;29;20438;-80
2022/03/15 03:21:06;;;;;;;34.72;21.73;;;;;;;;;;4787796;29;20432;-80
2022/03/15 03:23:38;;;;;;;40.05;21.70;;;;;;;;;;4789544;29;20437;-81
2022/03/15 03:26:05;;;;;;;36.90;21.45;;;;;;;;;;4818413;29;20500;-80
2022/03/15 03:28:38;;;;;;;37.37;21.97;;;;;;;;;;4784987;29;20524;-80
2022/03/15 03:31:06;;;;;;;37.30;21.27;;;;;;;;;;4816637;29;20450;-80
2022/03/15 03:33:32;;;;;;;39.67;23.17;;;;;;;;;;4792447;29;20431;-80
2022/03/15 03:35:58;;;;;;;40.22;22.75;;;;;;;;;;4803175;29;20439;-80
2022/03/15 03:38:25;;;;;;;39.30;23.42;;;;;;;;;;4803207;29;20446;-81
2022/03/15 03:40:51;;;;;;;41.20;23.73;;;;;;;;;;4773121;29;20805;-80
2022/03/15 03:43:17;;;;;;;40.67;23.35;;;;;;;;;;4788778;29;20527;-80
2022/03/15 03:45:43;;;;;;;43.10;23.27;;;;;;;;;;4805074;29;20443;-80
2022/03/15 03:48:09;;;;;;;38.58;21.77;;;;;;;;;;4758626;29;20971;-80
2022/03/15 03:50:37;;;;;;;42.38;23.35;;;;;;;;;;4787764;29;20470;-81
2022/03/15 03:53:04;;;;;;;39.40;23.02;;;;;;;;;;4757303;29;20443;-80
2022/03/15 03:55:30;;;;;;;41.80;23.17;;;;;;;;;;4788666;29;20446;-81
2022/03/15 03:57:56;;;;;;;37.22;23.42;;;;;;;;;;4803776;29;20583;-80
2022/03/15 04:00:22;;;;;;;39.47;23.30;;;;;;;;;;4778618;29;20421;-81
2022/03/15 04:02:48;;;;;;;35.97;22.30;;;;;;;;;;4784373;29;20618;-80
2022/03/15 04:05:15;;;;;;;39.28;23.27;;;;;;;;;;4787196;29;20940;-81
2022/03/15 04:07:41;;;;;;;41.58;22.92;;;;;;;;;;4773258;29;20894;-81
2022/03/15 04:10:08;;;;;;;40.97;23.08;;;;;;;;;;4774355;29;20476;-81
2022/03/15 04:12:35;;;;;;;38.38;23.25;;;;;;;;;;4818120;29;20498;-80
2022/03/15 04:15:01;;;;;;;40.00;23.60;;;;;;;;;;4767616;30;21217;-81
2022/03/15 04:17:27;;;;;;;39.73;23.30;;;;;;;;;;4786308;29;20435;-81
2022/03/15 04:19:54;;;;;;;41.60;23.83;;;;;;;;;;4773532;29;20581;-81
2022/03/15 04:22:21;;;;;;;39.50;24.35;;;;;;;;;;4787404;29;20475;-81
2022/03/15 04:24:47;;;;;;;39.03;23.77;;;;;;;;;;4801786;29;20507;-81
2022/03/15 04:27:13;;;;;;;41.47;24.77;;;;;;;;;;4772832;29;20443;-80
2022/03/15 04:29:39;;;;;;;47.42;26.05;;;;;;;;;;4799817;29;20446;-80
2022/03/15 04:32:05;;;;;;;42.42;25.08;;;;;;;;;;4786996;29;20806;-80
2022/03/15 04:34:32;;;;;;;42.47;26.25;;;;;;;;;;4818686;29;20427;-80
2022/03/15 04:36:58;;;;;;;39.78;25.90;;;;;;;;;;4757708;29;20439;-80
2022/03/15 04:39:25;;;;;;;45.00;25.83;;;;;;;;;;4788663;29;20428;-80
2022/03/15 04:41:51;;;;;;;44.92;25.63;;;;;;;;;;4802209;29;20434;-80
2022/03/15 04:44:17;;;;;;;43.65;25.98;;;;;;;;;;4812767;29;20895;-80
2022/03/15 04:46:44;;;;;;;45.17;25.67;;;;;;;;;;4783746;29;20447;-81
2022/03/15 04:49:10;;;;;;;49.88;27.17;;;;;;;;;;4801745;29;20443;-81
2022/03/15 04:51:36;;;;;;;45.45;26.75;;;;;;;;;;4771787;29;20575;-81
2022/03/15 04:54:02;;;;;;;43.67;26.80;;;;;;;;;;4785616;29;20438;-81
2022/03/15 04:56:28;;;;;;;44.67;27.23;;;;;;;;;;4772385;29;20431;-81
2022/03/15 04:58:55;;;;;;;46.53;28.47;;;;;;;;;;4787679;29;20427;-80
2022/03/15 05:01:21;;;;;;;43.60;26.55;;;;;;;;;;4757904;29;20506;-80
2022/03/15 05:03:47;;;;;;;45.50;27.77;;;;;;;;;;4772031;29;20446;-80
2022/03/15 05:06:13;;;;;;;47.70;27.80;;;;;;;;;;4772028;29;20467;-80
2022/03/15 05:08:39;;;;;;;47.47;28.83;;;;;;;;;;4799939;29;20458;-80
2022/03/15 05:11:08;;;;;;;46.45;27.73;;;;;;;;;;4787633;29;20440;-80
2022/03/15 05:13:35;;;;;;;50.13;29.40;;;;;;;;;;4776362;29;20451;-80
2022/03/15 05:16:01;;;;;;;46.92;28.73;;;;;;;;;;4785785;29;20451;-80
2022/03/15 05:18:27;;;;;;;47.70;29.13;;;;;;;;;;4787685;29;20963;-76
2022/03/15 05:20:53;;;;;;;50.67;29.80;;;;;;;;;;4784071;29;20457;-81
2022/03/15 05:23:20;;;;;;;52.75;29.05;;;;;;;;;;4770414;29;20493;-81
2022/03/15 05:25:46;;;;;;;51.63;30.08;;;;;;;;;;4787998;29;20446;-81
2022/03/15 05:28:12;;;;;;;50.97;29.33;;;;;;;;;;4817117;29;20446;-81
2022/03/15 05:30:38;;;;;;;50.63;29.42;;;;;;;;;;4802448;29;20461;-81
2022/03/15 05:33:05;;;;;;;54.90;31.35;;;;;;;;;;4787206;29;20451;-81
2022/03/15 05:35:31;;;;;;;49.13;29.55;;;;;;;;;;4789747;29;20427;-81
2022/03/15 05:37:57;;;;;;;51.90;28.75;;;;;;;;;;4806429;29;20436;-81
2022/03/15 05:40:25;;;;;;;51.15;29.30;;;;;;;;;;4772350;29;20495;-81
2022/03/15 05:42:51;;;;;;;53.10;30.52;;;;;;;;;;4785695;29;20450;-80
2022/03/15 05:45:17;;;;;;;54.70;30.95;;;;;;;;;;4817216;29;20792;-81
2022/03/15 05:47:43;;;;;;;54.30;30.73;;;;;;;;;;4787132;29;20470;-81
2022/03/15 05:50:09;;;;;;;53.40;30.77;;;;;;;;;;4758324;29;20447;-81
2022/03/15 05:52:35;;;;;;;50.08;30.40;;;;;;;;;;4793572;29;20437;-82
2022/03/15 05:55:02;;;;;;;52.20;31.05;;;;;;;;;;4781114;29;20435;-82
2022/03/15 05:57:28;;;;;;;57.80;33.47;;;;;;;;;;4796726;29;20435;-82
2022/03/15 05:59:54;;;;;;;56.65;32.38;;;;;;;;;;4770669;29;20425;-82
2022/03/15 06:02:21;;;;;;;61.33;33.83;;;;;;;;;;4807827;29;20792;-82
2022/03/15 06:04:47;;;;;;;50.80;31.63;;;;;;;;;;4791515;29;20467;-82
2022/03/15 06:07:13;;;;;;;60.15;34.13;;;;;;;;;;4802325;29;20450;-82
2022/03/15 06:09:39;;;;;;;67.72;35.80;;;;;;;;;;4818821;29;20447;-82
2022/03/15 06:12:07;;;;;;;64.82;36.42;;;;;;;;;;4787993;29;20465;-82
2022/03/15 06:14:33;;;;;;;85.13;40.50;;;;;;;;;;4773389;29;20439;-83
2022/03/15 06:16:59;;;;;;;86.40;41.93;;;;;;;;;;4814610;29;20423;-84
2022/03/15 06:19:25;;;;;;;88.88;42.55;;;;;;;;;;4802615;29;20439;-83
2022/03/15 06:21:51;;;;;;;77.90;42.75;;;;;;;;;;4785918;29;20850;-84
2022/03/15 06:24:17;;;;;;;62.10;38.22;;;;;;;;;;4758572;29;20490;-83
2022/03/15 06:26:45;;;;;;;76.40;41.10;;;;;;;;;;4786151;29;20481;-84
2022/03/15 06:29:11;;;;;;;72.83;41.50;;;;;;;;;;4810439;29;20581;-83
2022/03/15 06:31:38;;;;;;;65.60;38.30;;;;;;;;;;4810327;29;20871;-83
2022/03/15 06:34:05;;;;;;;68.90;39.50;;;;;;;;;;4815740;29;20457;-83
2022/03/15 06:36:31;;;;;;;73.18;43.05;;;;;;;;;;4814517;29;20803;-83
2022/03/15 06:38:57;;;;;;;66.50;40.38;;;;;;;;;;4775716;29;20470;-83
2022/03/15 06:41:23;;;;;;;63.25;39.75;;;;;;;;;;4788854;29;20446;-82
2022/03/15 06:43:49;;;;;;;119.88;46.45;;;;;;;;;;4802008;29;20446;-83
2022/03/15 06:46:16;;;;;;;73.28;44.05;;;;;;;;;;4784879;29;20442;-82
2022/03/15 06:48:42;;;;;;;93.55;48.55;;;;;;;;;;4798722;29;20448;-82
2022/03/15 06:51:08;;;;;;;79.53;46.50;;;;;;;;;;4823255;29;20473;-82
2022/03/15 06:53:34;;;;;;;78.15;47.65;;;;;;;;;;4787646;29;20439;-82
2022/03/15 06:56:00;;;;;;;64.95;38.88;;;;;;;;;;4809995;29;20447;-83
2022/03/15 06:58:26;;;;;;;59.75;35.67;;;;;;;;;;4788664;29;20515;-82
2022/03/15 07:00:55;;;;;;;53.63;34.38;;;;;;;;;;4794257;29;20900;-83
2022/03/15 07:03:21;;;;;;;55.27;35.07;;;;;;;;;;4799615;29;20576;-83
2022/03/15 07:05:47;;;;;;;65.15;36.28;;;;;;;;;;4786700;29;20438;-82
2022/03/15 07:08:13;;;;;;;58.23;34.17;;;;;;;;;;4780849;30;20451;-82
2022/03/15 07:10:39;;;;;;;135.77;43.08;;;;;;;;;;4786664;29;20447;-83
2022/03/15 07:13:05;;;;;;;58.75;32.72;;;;;;;;;;4760198;29;20423;-83
2022/03/15 07:15:32;;;;;;;53.85;33.40;;;;;;;;;;4791377;29;20959;-84
2022/03/15 07:17:58;;;;;;;59.33;34.85;;;;;;;;;;4819059;29;20449;-83
2022/03/15 07:20:25;;;;;;;58.42;34.03;;;;;;;;;;4786867;29;21004;-83
2022/03/15 07:22:52;;;;;;;57.78;35.03;;;;;;;;;;4837094;29;20527;-82
2022/03/15 07:25:20;;;;;;;59.17;35.07;;;;;;;;;;4790197;29;20988;-83
2022/03/15 07:27:46;;;;;;;60.33;35.28;;;;;;;;;;4809166;29;20449;-82
2022/03/15 07:30:12;;;;;;;62.03;36.37;;;;;;;;;;4799870;29;20530;-84
2022/03/15 07:32:38;;;;;;;59.28;34.97;;;;;;;;;;4774106;29;20537;-86
2022/03/15 07:35:05;;;;;;;58.43;34.90;;;;;;;;;;4788344;29;20447;-85
2022/03/15 07:37:31;;;;;;;58.37;33.97;;;;;;;;;;4789118;29;20463;-85
2022/03/15 07:39:57;;;;;;;57.85;33.20;;;;;;;;;;4802967;29;20446;-83
2022/03/15 07:42:24;;;;;;;59.55;34.83;;;;;;;;;;4788353;29;20500;-85
2022/03/15 07:44:50;;;;;;;54.20;34.13;;;;;;;;;;4787461;29;20454;-85
2022/03/15 07:47:16;;;;;;;58.80;35.80;;;;;;;;;;4773547;29;20443;-84
2022/03/15 07:49:43;;;;;;;57.65;34.40;;;;;;;;;;4784263;29;20460;-84
2022/03/15 07:52:10;;;;;;;66.13;36.83;;;;;;;;;;4811447;29;20930;-85
2022/03/15 07:54:36;;;;;;;57.90;35.75;;;;;;;;;;4783615;29;20509;-84
2022/03/15 07:57:03;;;;;;;62.13;37.43;;;;;;;;;;4778539;29;20495;-84
2022/03/15 07:59:29;;;;;;;60.00;35.63;;;;;;;;;;4769700;30;20477;-84
2022/03/15 08:01:55;;;;;;;57.67;34.87;;;;;;;;;;4758158;29;20432;-84
2022/03/15 08:04:21;;;;;;;56.42;34.35;;;;;;;;;;4768703;29;20445;-88
2022/03/15 08:06:47;;;;;;;57.50;34.77;;;;;;;;;;4769747;30;20843;-87
2022/03/15 08:09:16;;;;;;;59.05;33.63;;;;;;;;;;4796703;29;20443;-88
2022/03/15 08:11:44;;;;;;;56.90;32.83;;;;;;;;;;4791102;29;20439;-87
2022/03/15 08:14:10;;;;;;;51.08;32.00;;;;;;;;;;4776259;29;20444;-88
2022/03/15 08:16:36;;;;;;;52.45;32.53;;;;;;;;;;4820310;29;20439;-85
2022/03/15 08:19:03;;;;;;;55.55;33.22;;;;;;;;;;4796357;29;20429;-87
2022/03/15 08:21:29;;;;;;;52.92;32.50;;;;;;;;;;4801443;29;20427;-87
2022/03/15 08:23:55;;;;;;;53.08;33.15;;;;;;;;;;4775291;30;20996;-89
2022/03/15 08:26:21;;;;;;;53.63;34.03;;;;;;;;;;4813250;29;20490;-87
2022/03/15 08:28:48;;;;;;;52.42;32.70;;;;;;;;;;4791269;29;20451;-89
2022/03/15 08:31:14;;;;;;;52.65;32.88;;;;;;;;;;4779743;30;20433;-86
2022/03/15 08:33:41;;;;;;;52.65;33.80;;;;;;;;;;4770727;30;20440;-85
2022/03/15 08:36:07;;;;;;;56.15;34.63;;;;;;;;;;4801368;29;20520;-86
2022/03/15 08:38:34;;;;;;;52.08;32.42;;;;;;;;;;4780820;29;20702;-87
2022/03/15 08:41:01;;;;;;;49.72;32.03;;;;;;;;;;4813447;29;20484;-84
2022/03/15 08:43:27;;;;;;;45.75;30.77;;;;;;;;;;4788873;29;20440;-82
2022/03/15 08:45:53;;;;;;;49.20;31.63;;;;;;;;;;4801137;29;20456;-83
2022/03/15 08:48:20;;;;;;;42.00;28.88;;;;;;;;;;4784791;29;20544;-83
2022/03/15 08:50:46;;;;;;;44.05;28.45;;;;;;;;;;4799477;29;20432;-83
2022/03/15 08:53:13;;;;;;;41.67;28.10;;;;;;;;;;4805435;29;20441;-83
2022/03/15 08:55:39;;;;;;;43.55;29.33;;;;;;;;;;4792901;29;20486;-83
2022/03/15 08:58:05;;;;;;;43.42;28.92;;;;;;;;;;4796038;29;20464;-84
2022/03/15 09:00:31;;;;;;;39.73;28.73;;;;;;;;;;4770214;29;20570;-84
2022/03/15 09:02:57;;;;;;;43.22;28.42;;;;;;;;;;4800973;29;20448;-83
2022/03/15 09:05:25;;;;;;;45.80;30.15;;;;;;;;;;4769947;30;20533;-84
2022/03/15 09:07:52;;;;;;;40.50;28.73;;;;;;;;;;4771236;29;20429;-85
2022/03/15 09:10:19;;;;;;;41.90;28.85;;;;;;;;;;4769527;29;20806;-83
2022/03/15 09:12:46;;;;;;;42.53;28.67;;;;;;;;;;4783548;29;20445;-82
2022/03/15 09:15:12;;;;;;;39.75;28.83;;;;;;;;;;4769562;29;20432;-85
2022/03/15 09:17:38;;;;;;;46.03;31.75;;;;;;;;;;4798212;29;20463;-83
2022/03/15 09:20:05;;;;;;;42.42;28.00;;;;;;;;;;4810843;29;20950;-82
2022/03/15 09:22:31;;;;;;;41.92;28.90;;;;;;;;;;4802624;29;20447;-83
2022/03/15 09:24:57;;;;;;;43.10;28.73;;;;;;;;;;4773086;29;20440;-83
2022/03/15 09:27:24;;;;;;;39.55;27.13;;;;;;;;;;4784045;29;21012;-83
2022/03/15 09:29:50;;;;;;;46.72;29.33;;;;;;;;;;4794343;29;20498;-78
2022/03/15 09:32:16;;;;;;;38.75;29.88;;;;;;;;;;4813039;29;20441;-82
2022/03/15 09:34:43;;;;;;;39.95;28.73;;;;;;;;;;4795482;29;20934;-84
2022/03/15 09:37:10;;;;;;;42.30;29.00;;;;;;;;;;4804657;29;20977;-84
2022/03/15 09:39:36;;;;;;;41.47;29.00;;;;;;;;;;4793696;29;20433;-83
2022/03/15 09:42:07;;;;;;;39.00;27.95;;;8.50;99.90;;;;;;4772546;29;20451;-83
2022/03/15 09:44:35;;;;;;;38.90;28.43;;;;;;;;;;4771541;30;20500;-85
2022/03/15 09:47:03;;;;;;;38.50;27.20;;;;;;;;;;4788025;29;20446;-84
2022/03/15 09:49:29;;;;;;;40.85;28.98;;;;;;;;;;4783656;29;21000;-84
2022/03/15 09:51:56;;;;;;;42.33;28.90;;;;;;;;;;4784832;29;20447;-84
2022/03/15 09:54:24;;;;;;;43.55;29.38;;;;;;;;;;4786841;29;20445;-84
2022/03/15 09:56:50;;;;;;;42.25;29.20;;;;;;;;;;4820631;29;20426;-84
2022/03/15 09:59:18;;;;;;;44.30;31.98;;;;;;;;;;4771374;29;20791;-80
2022/03/15 10:01:45;;;;;;;43.60;29.52;;;;;;;;;;4790080;29;20514;-83
2022/03/15 10:04:15;;;;;;;39.50;27.90;;;;;;;;;;4795202;29;20515;-87
2022/03/15 10:06:43;;;;;;;38.60;26.60;;;;;;;;;;4779371;29;20449;-84
2022/03/15 10:09:09;;;;;;;39.05;25.80;;;;;;;;;;4794020;29;20486;-85
2022/03/15 10:11:37;;;;;;;37.13;25.95;;;;;;;;;;4782488;29;20499;-82
2022/03/15 10:14:04;;;;;;;36.83;27.30;;;;;;;;;;4805691;29;20454;-84
2022/03/15 10:16:31;;;;;;;37.10;26.42;;;;;;;;;;4777084;29;20435;-84
2022/03/15 10:18:58;;;;;;;36.63;26.95;;;;;;;;;;4797949;29;20430;-84
2022/03/15 10:21:27;;;;;;;38.83;27.15;;;;;;;;;;4773739;29;20539;-82
2022/03/15 10:23:57;;;;;;;37.38;26.35;;;;;;;;;;4780823;29;20423;-80
2022/03/15 10:26:26;;;;;;;39.67;28.47;;;;;;;;;;4806779;29;20509;-82
2022/03/15 10:28:54;;;;;;;43.10;27.83;;;;;;;;;;4788094;29;20443;-83
2022/03/15 10:31:27;;;;;;;41.03;28.40;;;;;;;;;;4773966;29;20546;-82
2022/03/15 10:33:54;;;;;;;42.67;30.65;;;;;;;;;;4784333;29;20430;-83
2022/03/15 10:36:21;;;;;;;39.80;27.60;;;;;;;;;;4799227;29;20443;-86
2022/03/15 10:38:49;;;;;;;45.92;32.45;;;;;;;;;;4775153;29;20443;-85
2022/03/15 10:41:16;;;;;;;49.40;32.15;;;;;;;;;;4783875;29;20458;-84
2022/03/15 10:43:42;;;;;;;51.08;32.67;;;;;;;;;;4817344;29;20488;-85
2022/03/15 10:46:12;;;;;;;53.50;34.33;;;;;;;;;;4802294;29;20838;-84
2022/03/15 10:48:39;;;;;;;54.15;35.50;;;;;;;;;;4794942;29;20484;-83
2022/03/15 10:51:12;;;;;;;68.90;37.60;;;;;;;;;;4786677;29;20446;-85
2022/03/15 10:53:39;;;;;;;52.97;34.45;;;;;;;;;;4762058;29;20955;-89
2022/03/15 10:56:08;;;;;;;50.83;32.90;;;;;;;;;;4809584;29;20437;-84
2022/03/15 10:58:35;;;;;;;48.20;32.17;;;;;;;;;;4802236;29;20443;-85
2022/03/15 11:01:01;;;;;;;49.78;31.90;;;;;;;;;;4787473;29;20443;-84
2022/03/15 11:03:29;;;;;;;51.88;32.42;;;;;;;;;;4774601;29;20484;-84
2022/03/15 11:05:58;;;;;;;49.35;31.80;;;;;;;;;;4774398;29;20856;-84
2022/03/15 11:08:24;;;;;;;51.78;33.38;;;;;;;;;;4789347;29;20430;-85
2022/03/15 11:10:51;;;;;;;50.20;33.53;;;;;;;;;;4787620;29;20804;-84
2022/03/15 11:13:17;;;;;;;53.28;34.63;;;;;;;;;;4813553;29;20840;-83
2022/03/15 11:15:53;;;;;;;45.25;30.52;;;;;;;;;;4781758;29;20489;-84
2022/03/15 11:18:19;;;;;;;47.88;32.58;;;;;;;;;;4786661;29;20804;-83
2022/03/15 11:20:47;;;;;;;47.80;33.40;;;;;;;;;;4812644;29;20912;-84
2022/03/15 11:23:17;;;;;;;47.58;33.08;;;;;;;;;;4795475;29;20466;-86
2022/03/15 11:25:45;;;;;;;51.92;34.17;;;;;;;;;;4813021;29;20512;-84
2022/03/15 11:28:31;;;;;;;50.25;33.83;;;;;;;;;;4803088;29;20493;-81
2022/03/15 11:30:57;;;;;;;46.17;33.33;;;;;;;;;;4787982;29;20443;-83
2022/03/15 11:33:24;;;;;;;50.30;34.25;;;;;;;;;;4773904;29;20758;-82
2022/03/15 11:35:50;;;;;;;46.72;32.38;;;;;;;;;;4819360;29;20892;-84
2022/03/15 11:38:18;;;;;;;44.70;30.30;;;;;;;;;;4772966;29;20473;-84
2022/03/15 11:40:45;;;;;;;45.35;31.38;;;;;;;;;;4785853;29;20450;-85
2022/03/15 11:43:12;;;;;;;41.20;29.85;;;;;;;;;;4805627;29;20439;-82
2022/03/15 11:45:44;;;;;;;40.58;26.60;;;;;;;;;;4798636;29;20430;-80
2022/03/15 11:48:22;;;;;;;36.53;25.60;;;;;;;;;;4773903;29;20439;-81
2022/03/15 11:50:55;;;;;;;35.87;26.27;;;;;;;;;;4791432;29;20576;-81
2022/03/15 11:53:28;;;;;;;35.33;25.42;;;;;;;;;;4784192;29;20434;-81
2022/03/15 11:56:02;;;;;;;31.67;24.40;;;;;;;;;;4787639;29;20473;-80
2022/03/15 11:58:29;;;;;;;32.55;24.08;;;10.90;99.90;;;;;;4787939;29;20979;-79
2022/03/15 12:00:57;;;;;;;31.88;22.88;;;;;;;;;;4756328;30;20448;-82
2022/03/15 12:03:24;;;;;;;32.38;20.92;;;;;;;;;;4786807;29;20792;-81
2022/03/15 12:05:52;;;;;;;26.02;18.92;;;11.50;99.90;;;;;;4798113;29;20522;-81
2022/03/15 12:08:23;;;;;;;28.03;19.93;;;;;;;;;;4786574;29;21863;-80
2022/03/15 12:10:56;;;;;;;28.98;19.63;;;;;;;;;;4821868;29;20932;-80
2022/03/15 12:13:47;;;;;;;26.97;18.50;;;11.70;99.90;;;;;;4813327;29;20562;-82
2022/03/15 12:16:15;;;;;;;26.75;17.95;;;;;;;;;;4794638;29;20512;-83
2022/03/15 12:19:12;;;;;;;24.27;17.33;;;12.00;99.90;;;;;;4799293;29;20454;-81
2022/03/15 12:21:51;;;;;;;26.85;18.73;;;;;;;;;;4782298;29;20478;-79
2022/03/15 12:24:19;;;;;;;21.40;16.08;;;;;;;;;;4777826;29;20529;-81
2022/03/15 12:26:58;;;;;;;24.33;16.83;;;;;;;;;;4817275;29;20792;-80
2022/03/15 12:29:26;;;;;;;23.05;16.20;;;;;;;;;;4785981;29;20443;-80
2022/03/15 12:31:53;;;;;;;24.43;15.27;;;;;;;;;;4789200;29;21058;-80
2022/03/15 12:34:19;;;;;;;22.77;15.10;;;;;;;;;;4773137;29;20451;-81
2022/03/15 12:36:51;;;;;;;22.67;14.75;;;12.10;99.90;;;;;;4801055;29;21022;-81
2022/03/15 12:39:24;;;;;;;20.98;14.15;;;;;;;;;;4772392;29;20442;-82
2022/03/15 12:42:03;;;;;;;24.55;15.07;;;;;;;;;;4789400;29;20482;-81
2022/03/15 12:44:43;;;;;;;20.33;13.33;;;;;;;;;;4783334;29;20439;-81
2022/03/15 12:47:10;;;;;;;20.45;12.93;;;11.40;99.90;;;;;;4771383;29;20484;-81
2022/03/15 12:49:36;;;;;;;16.60;11.93;;;;;;;;;;4756128;29;20572;-83
2022/03/15 12:52:10;;;;;;;21.20;12.00;;;;;;;;;;4787140;29;20447;-81
2022/03/15 12:54:36;;;;;;;18.67;12.15;;;;;;;;;;4803129;29;20427;-82
2022/03/15 12:57:10;;;;;;;20.02;12.57;;;;;;;;;;4778095;29;20790;-82
2022/03/15 12:59:37;;;;;;;20.00;12.20;;;11.60;99.90;;;;;;4789832;29;20777;-84
2022/03/15 13:02:05;;;;;;;18.77;12.07;;;;;;;;;;4785879;29;20475;-80
2022/03/15 13:04:32;;;;;;;19.60;12.50;;;;;;;;;;4781673;29;20468;-79
2022/03/15 13:07:04;;;;;;;18.55;13.25;;;;;;;;;;4787455;29;20525;-79
2022/03/15 13:09:31;;;;;;;19.50;12.50;;;;;;;;;;4758716;29;20471;-79
2022/03/15 13:11:57;;;;;;;18.45;10.85;;;;;;;;;;4786107;29;20533;-79
2022/03/15 13:14:25;;;;;;;18.08;11.50;;;;;;;;;;4803688;29;20943;-80
2022/03/15 13:16:51;;;;;;;16.92;10.93;;;;;;;;;;4776244;29;20441;-80
2022/03/15 13:19:34;;;;;;;18.50;11.87;;;;;;;;;;4795736;29;20598;-80
2022/03/15 13:22:02;;;;;;;17.52;11.25;;;12.70;99.90;;;;;;4788783;29;20443;-79
2022/03/15 13:24:37;;;;;;;17.90;11.20;;;;;;;;;;4775286;29;20795;-79
2022/03/15 13:27:04;;;;;;;17.10;10.88;;;;;;;;;;4800443;29;20448;-79
2022/03/15 13:29:36;;;;;;;19.27;10.23;;;;;;;;;;4805174;29;20437;-80
2022/03/15 13:32:04;;;;;;;16.10;9.48;;;12.40;99.90;;;;;;4786367;29;20553;-79
2022/03/15 13:34:31;;;;;;;19.15;10.13;;;;;;;;;;4767851;29;20432;-79
2022/03/15 13:37:07;;;;;;;16.17;10.90;;;;;;;;;;4773619;29;20977;-79
2022/03/15 13:39:37;;;;;;;17.73;10.50;;;;;;;;;;4807929;29;20573;-79
2022/03/15 13:42:06;;;;;;;16.93;10.03;;;;;;;;;;4786000;29;20451;-78
2022/03/15 13:44:34;;;;;;;18.30;9.57;;;12.90;99.90;;;;;;4770178;29;20435;-80
2022/03/15 13:47:08;;;;;;;15.65;8.98;;;;;;;;;;4811893;29;20414;-79
2022/03/15 13:49:37;;;;;;;15.17;9.93;;;13.10;99.90;;;;;;4812347;29;20842;-79
2022/03/15 13:52:07;;;;;;;18.73;10.50;;;;;;;;;;4804337;29;20521;-79
2022/03/15 13:54:47;;;;;;;16.15;9.77;;;;;;;;;;4794458;29;20446;-79
2022/03/15 13:57:23;;;;;;;18.38;10.52;;;;;;;;;;4806897;29;20454;-79
2022/03/15 13:59:54;;;;;;;18.67;10.77;;;12.60;99.90;;;;;;4797236;29;20533;-79
2022/03/15 14:02:21;;;;;;;15.17;9.80;;;;;;;;;;4801332;29;20429;-79
2022/03/15 14:04:47;;;;;;;17.65;10.10;;;;;;;;;;4784604;29;20766;-79
2022/03/15 14:07:22;;;;;;;15.97;9.83;;;12.80;99.90;;;;;;4800453;29;20975;-78
2022/03/15 14:09:57;;;;;;;15.93;9.50;;;;;;;;;;4770077;29;20790;-79
2022/03/15 14:12:29;;;;;;;14.85;9.75;;;13.20;99.90;;;;;;4816574;29;20420;-79